createdAt,value
2017-08-08T00:00:59.887Z,16.32
2017-08-08T00:03:29.863Z,16.18
2017-08-08T00:05:59.654Z,16.25
2017-08-08T00:08:30.155Z,16.09
2017-08-08T00:10:59.959Z,16.10
2017-08-08T00:13:29.563Z,16.02
2017-08-08T00:16:00.031Z,15.88
2017-08-08T00:18:29.995Z,15.89
2017-08-08T00:20:59.666Z,15.78
2017-08-08T00:23:29.130Z,15.87
2017-08-08T00:25:59.422Z,16.05
2017-08-08T00:28:29.069Z,16.05
2017-08-08T00:30:59.299Z,15.89
2017-08-08T00:33:29.228Z,16.14
2017-08-08T00:35:59.450Z,15.96
2017-08-08T00:38:28.967Z,15.83
2017-08-08T00:40:59.594Z,15.81
2017-08-08T00:43:29.315Z,15.25
2017-08-08T00:45:59.559Z,15.52
2017-08-08T00:48:29.423Z,15.56
2017-08-08T00:50:58.749Z,15.43
2017-08-08T00:53:28.351Z,15.55
2017-08-08T00:55:59.474Z,15.76
2017-08-08T00:58:28.624Z,15.65
2017-08-08T01:01:00.654Z,15.60
2017-08-08T01:03:30.524Z,15.36
2017-08-08T01:06:00.055Z,15.48
2017-08-08T01:08:29.501Z,15.26
2017-08-08T01:10:59.680Z,15.20
2017-08-08T01:13:29.072Z,15.26
2017-08-08T01:15:59.011Z,14.72
2017-08-08T01:18:28.966Z,15.04
2017-08-08T01:20:59.475Z,14.76
2017-08-08T01:23:28.955Z,14.86
2017-08-08T01:26:00.739Z,14.70
2017-08-08T01:28:30.247Z,14.68
2017-08-08T01:31:00.055Z,14.46
2017-08-08T01:33:29.922Z,14.42
2017-08-08T01:36:00.884Z,14.50
2017-08-08T01:38:31.483Z,13.94
2017-08-08T01:41:01.637Z,14.03
2017-08-08T01:43:31.593Z,13.80
2017-08-08T01:46:09.192Z,14.27
2017-08-08T01:48:38.630Z,14.35
2017-08-08T01:51:08.087Z,13.85
2017-08-08T01:53:37.736Z,13.52
2017-08-08T01:56:07.150Z,14.21
2017-08-08T01:58:36.585Z,13.98
2017-08-08T02:01:06.592Z,14.10
2017-08-08T02:03:36.125Z,14.19
2017-08-08T02:06:05.393Z,14.30
2017-08-08T02:08:34.725Z,14.18
2017-08-08T02:11:04.273Z,14.28
2017-08-08T02:13:33.588Z,14.40
2017-08-08T02:16:02.876Z,14.37
2017-08-08T02:18:33.663Z,14.49
2017-08-08T02:21:03.347Z,14.23
2017-08-08T02:23:32.768Z,13.98
2017-08-08T02:26:02.956Z,13.84
2017-08-08T02:28:32.346Z,13.95
2017-08-08T02:31:01.611Z,13.98
2017-08-08T02:33:31.122Z,13.88
2017-08-08T02:36:00.596Z,13.82
2017-08-08T02:38:30.303Z,14.04
2017-08-08T02:41:00.187Z,13.78
2017-08-08T02:43:30.293Z,13.66
2017-08-08T02:46:01.242Z,13.69
2017-08-08T02:48:30.751Z,13.77
2017-08-08T02:51:03.492Z,13.63
2017-08-08T02:53:34.482Z,13.62
2017-08-08T02:56:04.100Z,13.45
2017-08-08T02:58:34.053Z,13.51
2017-08-08T03:01:03.404Z,13.45
2017-08-08T03:03:34.330Z,13.31
2017-08-08T03:06:03.623Z,13.39
2017-08-08T03:08:32.821Z,13.43
2017-08-08T03:11:02.576Z,13.83
2017-08-08T03:13:32.088Z,13.64
2017-08-08T03:16:01.483Z,13.74
2017-08-08T03:18:31.736Z,13.74
2017-08-08T03:21:01.451Z,13.51
2017-08-08T03:23:31.100Z,13.77
2017-08-08T03:26:00.290Z,13.45
2017-08-08T03:28:29.943Z,13.67
2017-08-08T03:30:59.437Z,13.85
2017-08-08T03:33:28.758Z,14.02
2017-08-08T03:36:01.431Z,13.80
2017-08-08T03:38:30.775Z,13.24
2017-08-08T03:41:00.143Z,13.65
2017-08-08T03:43:37.905Z,13.13
2017-08-08T03:46:08.038Z,13.11
2017-08-08T03:48:37.626Z,13.56
2017-08-08T03:51:07.046Z,13.41
2017-08-08T03:53:36.467Z,13.34
2017-08-08T03:56:06.390Z,13.00
2017-08-08T03:58:36.024Z,13.17
2017-08-08T04:01:05.683Z,13.35
2017-08-08T04:03:35.634Z,13.45
2017-08-08T04:06:05.315Z,13.67
2017-08-08T04:08:34.908Z,13.00
2017-08-08T04:11:05.407Z,13.40
2017-08-08T04:13:37.295Z,13.53
2017-08-08T04:16:07.906Z,13.64
2017-08-08T04:18:39.147Z,13.10
2017-08-08T04:21:08.863Z,13.30
2017-08-08T04:23:40.233Z,12.91
2017-08-08T04:26:10.526Z,13.48
2017-08-08T04:28:40.504Z,12.88
2017-08-08T04:31:10.133Z,13.29
2017-08-08T04:33:39.426Z,13.04
2017-08-08T04:36:09.171Z,13.34
2017-08-08T04:38:40.548Z,13.17
2017-08-08T04:41:10.558Z,13.16
2017-08-08T04:43:46.121Z,13.45
2017-08-08T04:46:15.983Z,13.43
2017-08-08T04:48:45.576Z,13.49
2017-08-08T04:51:14.983Z,13.61
2017-08-08T04:53:48.367Z,13.52
2017-08-08T04:56:18.237Z,13.64
2017-08-08T04:58:47.870Z,13.68
2017-08-08T05:01:17.523Z,13.62
2017-08-08T05:03:47.894Z,13.65
2017-08-08T05:06:17.690Z,13.78
2017-08-08T05:08:46.971Z,13.91
2017-08-08T05:11:16.513Z,14.04
2017-08-08T05:13:45.981Z,14.08
2017-08-08T05:16:15.437Z,14.23
2017-08-08T05:18:45.428Z,14.34
2017-08-08T05:21:16.175Z,14.46
2017-08-08T05:23:46.819Z,14.59
2017-08-08T05:26:16.687Z,14.73
2017-08-08T05:28:46.535Z,14.81
2017-08-08T05:31:16.201Z,14.90
2017-08-08T05:33:48.673Z,14.94
2017-08-08T05:36:18.436Z,15.12
2017-08-08T05:38:48.211Z,15.26
2017-08-08T05:41:20.060Z,15.26
2017-08-08T05:43:49.930Z,15.44
2017-08-08T05:46:20.641Z,15.40
2017-08-08T05:48:56.599Z,15.40
2017-08-08T05:51:27.075Z,15.46
2017-08-08T05:54:05.355Z,15.60
2017-08-08T05:56:34.732Z,15.70
2017-08-08T05:59:07.034Z,15.79
2017-08-08T06:01:37.367Z,15.99
2017-08-08T06:04:08.116Z,16.09
2017-08-08T06:06:37.880Z,16.20
2017-08-08T06:09:09.846Z,16.22
2017-08-08T06:11:39.166Z,16.51
2017-08-08T06:14:08.476Z,16.79
2017-08-08T06:16:38.511Z,16.86
2017-08-08T06:19:07.820Z,17.31
2017-08-08T06:21:37.437Z,17.23
2017-08-08T06:24:12.620Z,17.20
2017-08-08T06:26:41.936Z,17.60
2017-08-08T06:29:11.931Z,17.54
2017-08-08T06:31:41.705Z,17.92
2017-08-08T06:34:11.090Z,17.92
2017-08-08T06:36:41.546Z,18.27
2017-08-08T06:39:10.776Z,18.12
2017-08-08T06:41:40.448Z,18.47
2017-08-08T06:44:13.039Z,18.42
2017-08-08T06:46:43.702Z,18.64
2017-08-08T06:49:13.606Z,18.98
2017-08-08T06:51:44.179Z,19.26
2017-08-08T06:54:13.426Z,19.29
2017-08-08T06:56:43.155Z,19.78
2017-08-08T06:59:12.679Z,19.91
2017-08-08T07:01:44.210Z,20.12
2017-08-08T07:04:13.700Z,20.54
2017-08-08T07:06:43.307Z,20.58
2017-08-08T07:09:14.195Z,20.74
2017-08-08T07:11:45.072Z,20.56
2017-08-08T07:14:16.776Z,20.69
2017-08-08T07:16:46.099Z,20.74
2017-08-08T07:19:15.627Z,20.95
2017-08-08T07:21:46.464Z,21.12
2017-08-08T07:24:16.304Z,20.99
2017-08-08T07:26:46.459Z,20.99
2017-08-08T07:29:16.230Z,21.10
2017-08-08T07:31:45.831Z,20.92
2017-08-08T07:34:17.971Z,20.98
2017-08-08T07:36:47.526Z,21.09
2017-08-08T07:39:16.971Z,21.31
2017-08-08T07:41:47.282Z,21.35
2017-08-08T07:44:16.935Z,21.60
2017-08-08T07:46:46.652Z,21.55
2017-08-08T07:49:18.543Z,21.77
2017-08-08T07:52:06.449Z,21.86
2017-08-08T07:54:36.275Z,21.67
2017-08-08T07:57:05.777Z,21.79
2017-08-08T07:59:35.054Z,21.98
2017-08-08T08:02:05.524Z,22.14
2017-08-08T08:04:34.801Z,22.12
2017-08-08T08:07:04.668Z,22.20
2017-08-08T08:09:35.686Z,22.33
2017-08-08T08:12:05.264Z,22.01
2017-08-08T08:14:34.488Z,22.30
2017-08-08T08:17:05.647Z,22.06
2017-08-08T08:19:34.903Z,22.51
2017-08-08T08:22:04.732Z,22.17
2017-08-08T08:24:34.509Z,22.69
2017-08-08T08:27:04.939Z,22.97
2017-08-08T08:29:34.587Z,23.16
2017-08-08T08:32:04.276Z,23.16
2017-08-08T08:34:33.958Z,22.95
2017-08-08T08:37:03.869Z,22.82
2017-08-08T08:39:40.037Z,22.63
2017-08-08T08:42:09.325Z,23.48
2017-08-08T08:44:38.830Z,23.82
2017-08-08T08:47:08.677Z,23.85
2017-08-08T08:49:38.054Z,23.99
2017-08-08T08:52:07.780Z,24.28
2017-08-08T08:54:37.474Z,23.81
2017-08-08T08:57:08.663Z,23.83
2017-08-08T08:59:38.178Z,24.07
2017-08-08T09:02:09.376Z,24.30
2017-08-08T09:07:02.058Z,24.27
2017-08-08T09:09:31.539Z,24.34
2017-08-08T09:12:09.515Z,24.42
2017-08-08T09:14:39.214Z,24.82
2017-08-08T09:17:08.915Z,24.51
2017-08-08T09:19:38.506Z,24.46
2017-08-08T09:22:08.081Z,24.48
2017-08-08T09:24:38.086Z,24.00
2017-08-08T09:27:07.825Z,24.44
2017-08-08T09:29:37.301Z,24.43
2017-08-08T09:32:06.481Z,24.93
2017-08-08T09:34:35.855Z,25.21
2017-08-08T09:37:05.708Z,25.25
2017-08-08T09:39:35.080Z,25.04
2017-08-08T09:42:04.418Z,25.18
2017-08-08T09:44:34.529Z,25.39
2017-08-08T09:47:04.991Z,25.63
2017-08-08T09:49:34.252Z,25.77
2017-08-08T09:52:03.739Z,26.45
2017-08-08T09:54:33.002Z,26.82
2017-08-08T09:57:02.419Z,26.70
2017-08-08T10:00:00.937Z,26.65
2017-08-08T10:02:30.544Z,26.77
2017-08-08T10:05:00.512Z,27.47
2017-08-08T10:07:29.795Z,27.39
2017-08-08T10:09:59.912Z,26.96
2017-08-08T10:12:29.415Z,27.35
2017-08-08T10:14:59.641Z,27.50
2017-08-08T10:17:29.675Z,27.98
2017-08-08T10:20:00.106Z,27.66
2017-08-08T10:22:29.635Z,28.11
2017-08-08T10:25:00.616Z,27.75
2017-08-08T10:27:30.352Z,28.13
2017-08-08T10:29:59.629Z,28.03
2017-08-08T10:32:28.970Z,27.79
2017-08-08T10:35:00.561Z,28.30
2017-08-08T10:37:33.295Z,28.19
2017-08-08T10:40:03.077Z,28.41
2017-08-08T10:42:38.519Z,28.64
2017-08-08T10:45:08.503Z,28.56
2017-08-08T10:47:38.228Z,28.97
2017-08-08T10:50:07.763Z,29.17
2017-08-08T10:52:37.474Z,28.90
2017-08-08T10:55:08.755Z,29.87
2017-08-08T10:57:38.038Z,29.28
2017-08-08T11:00:09.816Z,29.36
2017-08-08T11:02:39.021Z,28.64
2017-08-08T11:05:08.515Z,29.46
2017-08-08T11:07:38.168Z,29.70
2017-08-08T11:10:07.998Z,29.26
2017-08-08T11:12:37.207Z,29.44
2017-08-08T11:15:07.812Z,30.18
2017-08-08T11:17:37.435Z,30.37
2017-08-08T11:20:07.306Z,30.85
2017-08-08T11:22:37.064Z,30.11
2017-08-08T11:25:08.761Z,30.66
2017-08-08T11:27:38.618Z,30.90
2017-08-08T11:30:08.036Z,30.48
2017-08-08T11:32:37.265Z,31.18
2017-08-08T11:35:06.955Z,31.11
2017-08-08T11:37:36.714Z,30.71
2017-08-08T11:40:11.074Z,31.07
2017-08-08T11:42:40.660Z,31.40
2017-08-08T11:45:10.265Z,31.78
2017-08-08T11:47:40.319Z,31.31
2017-08-08T11:50:10.088Z,31.21
2017-08-08T11:52:39.779Z,29.71
2017-08-08T11:55:08.983Z,29.73
2017-08-08T11:57:38.853Z,29.67
2017-08-08T12:00:08.644Z,30.10
2017-08-08T12:02:37.851Z,30.13
2017-08-08T12:05:07.558Z,30.29
2017-08-08T12:07:36.748Z,30.71
2017-08-08T12:10:06.319Z,30.50
2017-08-08T12:12:35.822Z,31.53
2017-08-08T12:15:05.094Z,30.82
2017-08-08T12:17:34.710Z,30.27
2017-08-08T12:20:05.531Z,30.81
2017-08-08T12:22:34.919Z,30.34
2017-08-08T12:25:04.276Z,30.66
2017-08-08T12:27:33.979Z,30.36
2017-08-08T12:30:03.255Z,30.05
2017-08-08T12:32:33.440Z,30.12
2017-08-08T12:35:04.609Z,30.29
2017-08-08T12:37:34.349Z,30.39
2017-08-08T12:40:03.831Z,31.02
2017-08-08T12:42:33.321Z,31.59
2017-08-08T12:45:02.566Z,29.77
2017-08-08T12:47:31.999Z,31.23
2017-08-08T12:50:01.890Z,31.75
2017-08-08T12:52:31.116Z,31.75
2017-08-08T12:55:02.817Z,31.83
2017-08-08T12:57:32.919Z,31.17
2017-08-08T13:00:02.465Z,31.53
2017-08-08T13:02:32.207Z,31.71
2017-08-08T13:05:01.873Z,31.72
2017-08-08T13:07:31.131Z,31.07
2017-08-08T13:10:00.579Z,31.08
2017-08-08T13:12:36.794Z,31.25
2017-08-08T13:15:08.879Z,31.17
2017-08-08T13:17:38.731Z,30.85
2017-08-08T13:20:13.597Z,30.93
2017-08-08T13:22:44.339Z,31.16
2017-08-08T13:25:15.435Z,31.34
2017-08-08T13:27:45.827Z,30.92
2017-08-08T13:30:19.339Z,30.23
2017-08-08T13:32:48.638Z,30.04
2017-08-08T13:35:17.844Z,29.85
2017-08-08T13:37:47.374Z,30.02
2017-08-08T13:40:16.579Z,30.27
2017-08-08T13:42:45.861Z,30.07
2017-08-08T13:45:15.819Z,29.94
2017-08-08T13:47:45.131Z,29.47
2017-08-08T13:50:14.499Z,29.44
2017-08-08T13:52:44.571Z,29.43
2017-08-08T13:55:13.764Z,29.63
2017-08-08T13:57:54.990Z,29.11
2017-08-08T14:00:30.433Z,28.94
2017-08-08T14:02:59.932Z,28.74
2017-08-08T14:05:29.503Z,28.61
2017-08-08T14:08:02.695Z,28.82
2017-08-08T14:10:31.936Z,28.61
2017-08-08T14:13:01.367Z,28.72
2017-08-08T14:15:30.886Z,28.67
2017-08-08T14:18:00.244Z,28.67
2017-08-08T14:20:29.554Z,28.71
2017-08-08T14:22:59.914Z,28.86
2017-08-08T14:25:29.088Z,29.26
2017-08-08T14:27:59.871Z,29.28
2017-08-08T14:30:29.963Z,29.23
2017-08-08T14:33:00.504Z,29.03
2017-08-08T14:35:29.713Z,28.86
2017-08-08T14:38:01.438Z,29.04
2017-08-08T14:40:30.779Z,28.92
2017-08-08T14:43:00.368Z,29.02
2017-08-08T14:45:29.891Z,28.92
2017-08-08T14:47:59.411Z,29.07
2017-08-08T14:50:28.624Z,28.85
2017-08-08T14:52:59.563Z,28.86
2017-08-08T14:55:28.895Z,28.79
2017-08-08T14:58:00.008Z,28.77
2017-08-08T15:00:29.814Z,28.77
2017-08-08T15:03:01.365Z,28.43
2017-08-08T15:05:30.587Z,28.65
2017-08-08T15:08:00.302Z,28.60
2017-08-08T15:10:29.895Z,28.69
2017-08-08T15:12:59.563Z,28.59
2017-08-08T15:15:29.183Z,28.35
2017-08-08T15:17:58.387Z,28.31
2017-08-08T15:20:28.876Z,28.55
2017-08-08T15:22:59.758Z,28.20
2017-08-08T15:25:29.008Z,28.37
2017-08-08T15:28:00.423Z,28.49
2017-08-08T15:30:30.159Z,28.74
2017-08-08T15:33:00.223Z,28.99
2017-08-08T15:35:29.675Z,28.77
2017-08-08T15:38:00.791Z,29.14
2017-08-08T15:40:30.008Z,28.89
2017-08-08T15:43:00.625Z,29.19
2017-08-08T15:45:30.083Z,29.05
2017-08-08T15:48:01.113Z,28.83
2017-08-08T15:50:30.353Z,28.84
2017-08-08T15:53:00.413Z,28.76
2017-08-08T15:55:29.987Z,28.72
2017-08-08T15:58:01.889Z,28.38
2017-08-08T16:00:31.402Z,28.23
2017-08-08T16:03:00.640Z,28.03
2017-08-08T16:05:29.897Z,27.85
2017-08-08T16:07:59.523Z,27.75
2017-08-08T16:10:28.779Z,27.71
2017-08-08T16:13:02.162Z,27.56
2017-08-08T16:15:32.059Z,27.41
2017-08-08T16:18:01.492Z,27.11
2017-08-08T16:20:30.820Z,27.05
2017-08-08T16:23:00.376Z,27.13
2017-08-08T16:25:29.708Z,26.98
2017-08-08T16:28:00.043Z,27.05
2017-08-08T16:30:29.707Z,27.00
2017-08-08T16:33:01.165Z,26.79
2017-08-08T16:35:31.659Z,26.84
2017-08-08T16:38:01.207Z,26.86
2017-08-08T16:40:31.092Z,26.88
2017-08-08T16:43:00.379Z,26.83
2017-08-08T16:45:30.249Z,26.79
2017-08-08T16:47:59.856Z,27.01
2017-08-08T16:50:29.367Z,26.89
2017-08-08T16:53:00.765Z,26.83
2017-08-08T16:55:30.151Z,26.86
2017-08-08T16:58:00.513Z,26.79
2017-08-08T17:00:30.129Z,26.50
2017-08-08T17:03:00.180Z,26.54
2017-08-08T17:05:29.503Z,26.24
2017-08-08T17:08:01.262Z,26.16
2017-08-08T17:10:30.548Z,26.17
2017-08-08T17:13:00.203Z,26.10
2017-08-08T17:15:31.507Z,25.98
2017-08-08T17:18:00.807Z,25.95
2017-08-08T17:20:30.084Z,25.87
2017-08-08T17:22:59.626Z,25.76
2017-08-08T17:25:29.031Z,25.70
2017-08-08T17:28:01.188Z,25.68
2017-08-08T17:30:30.916Z,25.59
2017-08-08T17:33:00.621Z,25.55
2017-08-08T17:35:30.389Z,25.49
2017-08-08T17:38:00.087Z,25.44
2017-08-08T17:40:29.798Z,25.34
2017-08-08T17:42:59.864Z,25.35
2017-08-08T17:45:30.443Z,25.23
2017-08-08T17:48:00.173Z,25.23
2017-08-08T17:50:29.839Z,25.20
2017-08-08T17:53:00.411Z,25.13
2017-08-08T17:55:30.488Z,25.08
2017-08-08T17:58:00.631Z,25.03
2017-08-08T18:00:30.273Z,24.95
2017-08-08T18:03:01.327Z,24.88
2017-08-08T18:05:30.563Z,24.88
2017-08-08T18:08:00.508Z,24.80
2017-08-08T18:10:30.297Z,24.76
2017-08-08T18:13:00.364Z,24.72
2017-08-08T18:15:29.941Z,24.68
2017-08-08T18:18:00.704Z,24.66
2017-08-08T18:20:29.974Z,24.56
2017-08-08T18:22:59.579Z,24.56
2017-08-08T18:25:29.779Z,24.48
2017-08-08T18:27:59.516Z,24.50
2017-08-08T18:30:29.179Z,24.42
2017-08-08T18:32:58.424Z,24.42
2017-08-08T18:35:27.628Z,24.29
2017-08-08T18:37:57.337Z,24.27
2017-08-08T18:40:27.207Z,24.25
2017-08-08T18:43:01.384Z,24.13
2017-08-08T18:45:31.011Z,24.14
2017-08-08T18:48:00.782Z,23.99
2017-08-08T18:50:30.558Z,24.00
2017-08-08T18:53:00.318Z,23.96
2017-08-08T18:55:29.532Z,24.00
2017-08-08T18:57:59.746Z,23.81
2017-08-08T19:00:29.378Z,23.85
2017-08-08T19:02:59.700Z,23.80
2017-08-08T19:05:28.863Z,23.74
2017-08-08T19:08:00.841Z,23.70
2017-08-08T19:10:30.470Z,23.67
2017-08-08T19:13:00.111Z,23.57
2017-08-08T19:15:29.599Z,23.57
2017-08-08T19:18:01.147Z,23.41
2017-08-08T19:20:30.414Z,23.46
2017-08-08T19:23:00.944Z,23.42
2017-08-08T19:25:30.349Z,23.40
2017-08-08T19:27:59.711Z,23.34
2017-08-08T19:30:30.995Z,23.26
2017-08-08T19:33:00.859Z,23.26
2017-08-08T19:35:30.388Z,23.22
2017-08-08T19:38:00.171Z,23.14
2017-08-08T19:40:30.344Z,23.09
2017-08-08T19:42:59.749Z,23.07
2017-08-08T19:45:29.286Z,22.99
2017-08-08T19:48:00.415Z,22.98
2017-08-08T19:50:29.992Z,22.94
2017-08-08T19:53:00.223Z,22.91
2017-08-08T19:55:29.717Z,22.82
2017-08-08T19:58:01.041Z,22.76
2017-08-08T20:00:30.798Z,22.76
2017-08-08T20:03:00.101Z,22.66
2017-08-08T20:05:30.247Z,22.64
2017-08-08T20:08:00.661Z,22.52
2017-08-08T20:10:30.067Z,22.60
2017-08-08T20:13:00.603Z,22.50
2017-08-08T20:15:30.247Z,22.54
2017-08-08T20:18:00.049Z,22.48
2017-08-08T20:20:29.224Z,22.47
2017-08-08T20:23:01.754Z,22.47
2017-08-08T20:25:31.209Z,22.47
2017-08-08T20:28:00.684Z,22.43
2017-08-08T20:30:30.385Z,22.43
2017-08-08T20:32:59.898Z,22.39
2017-08-08T20:35:29.092Z,22.29
2017-08-08T20:38:00.311Z,22.26
2017-08-08T20:40:29.559Z,22.23
2017-08-08T20:43:01.072Z,22.20
2017-08-08T20:45:30.615Z,22.26
2017-08-08T20:48:00.249Z,22.22
2017-08-08T20:50:29.511Z,22.11
2017-08-08T20:52:59.775Z,22.03
2017-08-08T20:55:28.982Z,22.02
2017-08-08T20:57:59.567Z,22.02
2017-08-08T21:00:29.696Z,21.99
2017-08-08T21:03:00.020Z,22.03
2017-08-08T21:05:29.411Z,21.97
2017-08-08T21:08:01.132Z,21.94
2017-08-08T21:10:30.667Z,21.84
2017-08-08T21:13:00.032Z,21.90
2017-08-08T21:15:29.571Z,21.68
2017-08-08T21:17:59.819Z,21.73
2017-08-08T21:20:29.808Z,21.81
2017-08-08T21:22:59.744Z,21.77
2017-08-08T21:25:28.954Z,21.80
2017-08-08T21:28:00.387Z,21.75
2017-08-08T21:30:30.708Z,21.72
2017-08-08T21:33:00.157Z,21.62
2017-08-08T21:35:29.527Z,21.57
2017-08-08T21:37:59.944Z,21.63
2017-08-08T21:40:29.671Z,21.54
2017-08-08T21:43:01.292Z,21.47
2017-08-08T21:45:30.954Z,21.55
2017-08-08T21:48:00.881Z,21.58
2017-08-08T21:50:31.533Z,21.44
2017-08-08T21:53:02.082Z,21.42
2017-08-08T21:55:33.951Z,21.45
2017-08-08T21:58:03.255Z,21.41
2017-08-08T22:00:32.755Z,21.43
2017-08-08T22:03:02.099Z,21.32
2017-08-08T22:05:31.705Z,21.28
2017-08-08T22:08:01.445Z,21.33
2017-08-08T22:10:31.675Z,21.30
2017-08-08T22:13:03.374Z,21.27
2017-08-08T22:15:32.991Z,21.31
2017-08-08T22:18:02.259Z,21.27
2017-08-08T22:20:31.939Z,21.21
2017-08-08T22:23:01.443Z,21.16
2017-08-08T22:25:34.543Z,21.15
2017-08-08T22:28:03.828Z,21.10
2017-08-08T22:30:33.410Z,21.04
2017-08-08T22:33:02.702Z,21.02
2017-08-08T22:35:31.935Z,20.98
2017-08-08T22:38:03.322Z,20.97
2017-08-08T22:40:32.955Z,20.94
2017-08-08T22:43:04.813Z,20.84
2017-08-08T22:45:34.459Z,20.79
2017-08-08T22:48:04.095Z,20.83
2017-08-08T22:50:33.559Z,20.89
2017-08-08T22:53:03.512Z,20.84
2017-08-08T22:55:32.902Z,20.88
2017-08-08T22:58:02.277Z,20.80
2017-08-08T23:00:32.055Z,20.86
2017-08-08T23:03:01.338Z,20.77
2017-08-08T23:05:30.655Z,20.76
2017-08-08T23:08:00.225Z,20.71
2017-08-08T23:10:29.919Z,20.73
2017-08-08T23:13:03.547Z,20.69
2017-08-08T23:15:33.504Z,20.66
2017-08-08T23:18:02.747Z,20.66
2017-08-08T23:20:32.012Z,20.59
2017-08-08T23:23:01.677Z,20.55
2017-08-08T23:25:31.644Z,20.54
2017-08-08T23:28:01.747Z,20.47
2017-08-08T23:30:31.572Z,20.54
2017-08-08T23:33:00.828Z,20.49
2017-08-08T23:35:30.384Z,20.51
2017-08-08T23:38:00.224Z,20.47
2017-08-08T23:40:29.599Z,20.40
2017-08-08T23:43:00.152Z,20.32
2017-08-08T23:45:29.674Z,20.37
2017-08-08T23:47:59.359Z,20.34
2017-08-08T23:50:29.011Z,20.31
2017-08-08T23:53:00.745Z,20.32
2017-08-08T23:55:30.399Z,20.36
2017-08-08T23:58:00.835Z,20.28
